Seeley, CA

4:26 PM PDT on July 26, 2016 (GMT -0700)
El Centro Naval Air Facility | | Change Station

Elev -43 ft 32.83 °N, 115.66 °W | Updated 30 minutes ago

Partly Cloudy
Partly Cloudy
111 °F
Feels Like 110 °F
N
9
Wind Variable Wind from ESE

Today
High -- | Low -- °F
--% Chance of Precip.
Yesterday
High -- | Low -- °F
Precip. -- in
Pressure 29.74 in
Visibility 10.0 miles
Clouds Few 8000 ft
Few 28000 ft
Heat Index 110 °F
Dew Point 56 °F
Humidity 16%
Rainfall 0.00 in
Snow Depth Not available.
5:52 AM 7:45 PM
Waning Gibbous, 50% visible
METAR KNJK 262256Z 12008KT 10SM FEW080 FEW280 44/13 A2970 RMK AO2 SLP071 CB DSNT SSW T04390133
Pressure 29.74 in
Visibility 10.0 miles
Clouds Few 8000 ft
Few 28000 ft
Heat Index 110 °F
Dew Point 56 °F
Humidity 16%
Rainfall 0.00 in
Snow Depth Not available.
5:52 AM 7:45 PM
Waning Gibbous, 50% visible
METAR KNJK 262256Z 12008KT 10SM FEW080 FEW280 44/13 A2970 RMK AO2 SLP071 CB DSNT SSW T04390133

10-Day Weather Forecast

Almanac

Astronomy

Jul. 26, 2016 Rise Set
Actual Time
Civil Twilight
Nautical Twilight
Astronomical Twilight
Moon
Length of Visible Light
Length of Day
Tomorrow will be .
, % of the Moon is Illuminated

Today's Extremes

State Highs State Lows

Community

WunderPhotos

Upload Photos

1,927,729 photos uploaded!

WunderBlog® & News

Nearby

Air Quality

  Air Quality AQ Index Pollutant
Not available.

Snow Depth

Station Depth Elevation

Earthquake Activity

City Distance Mag. Time & Date
Minimum magnitude displayed is 2.5.

Coastal Water Temperatures

Place Temperature

Stations

Nearby Weather Stations

Station Location Temp. Windchill Dew Point Humidity Wind Precip. Elev Updated Type
                   

Watches & Warnings

There are currently no watches in effect.